page 5715 of 1009887 registered users

eBook PostsUsers

  1. 0stock75state registered @ 2013-01-31 06:29:29, last login @ 2013-01-31 06:29:29
  2. 0firefrei registered @ 2013-01-31 06:32:12, last login @ 2013-01-31 06:32:52
  3. 0smile85polish registered @ 2013-01-31 06:35:25, last login @ 2013-01-31 06:35:25
  4. 0bottle09karate registered @ 2013-01-31 06:35:45, last login @ 2013-01-31 06:35:45
  5. 0teethatm32 registered @ 2013-01-31 06:36:53, last login @ 2013-01-31 06:36:53
  6. 0sky03person registered @ 2013-01-31 06:37:17, last login @ 2013-01-31 06:37:17
  7. 0panty00hell registered @ 2013-01-31 06:39:35, last login @ 2013-01-31 06:39:35
  8. 0bite9low registered @ 2013-01-31 06:40:15, last login @ 2013-01-31 06:50:59
  9. 0japanhand92 registered @ 2013-01-31 06:41:14, last login @ 2013-01-31 06:41:14
  10. 0madisonthoma1024 registered @ 2013-01-31 06:41:44, last login @ 2013-01-31 06:55:25
  11. 0hope98dugout registered @ 2013-01-31 06:43:53, last login @ 2013-01-31 06:43:53
  12. 0poloslash91 registered @ 2013-01-31 06:44:49, last login @ 2013-01-31 06:44:49
  13. 0Venaklazer registered @ 2013-01-31 06:44:56, last login @ 2013-01-31 06:44:56
  14. 0hand8pain registered @ 2013-01-31 06:45:09, last login @ 2013-01-31 06:45:09
  15. 0enemy40napkin registered @ 2013-01-31 06:45:14, last login @ 2013-01-31 06:45:14
  16. 0Rani778 registered @ 2013-01-31 06:46:47, last login @ 2013-01-31 06:46:47
  17. 0stove83mark registered @ 2013-01-31 06:47:35, last login @ 2013-01-31 06:47:35
  18. 0soda88robin registered @ 2013-01-31 06:48:08, last login @ 2013-01-31 06:48:08
  19. 0soy55gallon registered @ 2013-01-31 06:50:04, last login @ 2013-01-31 06:50:04
  20. 0cave2blood registered @ 2013-01-31 06:51:02, last login @ 2013-01-31 06:51:02
  21. 0island39bolt registered @ 2013-01-31 06:52:59, last login @ 2013-01-31 06:52:59
  22. 0elwoodfinneg49 registered @ 2013-01-31 06:55:29, last login @ 2013-01-31 06:55:29
  23. 0lunchegg87 registered @ 2013-01-31 06:56:51, last login @ 2013-01-31 06:56:51
  24. 0beef0dish registered @ 2013-01-31 06:56:54, last login @ 2013-01-31 06:56:54
  25. 0ordermuseum98 registered @ 2013-01-31 06:57:08, last login @ 2013-01-31 06:57:08
  26. 0keelsheyt5oo5e registered @ 2013-01-31 06:58:17, last login @ 2013-01-31 06:58:17
  27. 0sphynx45tempo registered @ 2013-01-31 06:58:39, last login @ 2013-01-31 06:58:39
  28. 0teller9single registered @ 2013-01-31 06:58:51, last login @ 2013-01-31 06:58:51
  29. 0damionbrock922 registered @ 2013-01-31 07:00:00, last login @ 2013-01-31 07:00:00
  30. 0brycepjzu0ahi registered @ 2013-01-31 07:00:18, last login @ 2013-01-31 07:00:18
  31. 0effect66flavor registered @ 2013-01-31 07:00:35, last login @ 2013-01-31 07:00:35
  32. 0maria8bottom registered @ 2013-01-31 07:00:50, last login @ 2013-01-31 07:00:50
  33. 0tennisgalley57 registered @ 2013-01-31 07:01:18, last login @ 2013-01-31 07:01:18
  34. 0rail5viola registered @ 2013-01-31 07:01:37, last login @ 2013-01-31 07:01:37
  35. 0lacelinda4 registered @ 2013-01-31 07:02:28, last login @ 2013-01-31 07:31:42
  36. 0wolf43archer registered @ 2013-01-31 07:02:35, last login @ 2013-01-31 07:02:35
  37. 0minebowl5 registered @ 2013-01-31 07:02:42, last login @ 2013-01-31 07:02:42
  38. 0plaintile5 registered @ 2013-01-31 07:03:38, last login @ 2013-01-31 07:03:38
  39. 0portervein27 registered @ 2013-01-31 07:04:08, last login @ 2013-01-31 07:54:09
  40. 0sand8butter registered @ 2013-01-31 07:04:23, last login @ 2013-01-31 07:04:23
  41. 0pea0margin registered @ 2013-01-31 07:04:26, last login @ 2013-01-31 07:04:26
  42. 0dewbox76 registered @ 2013-01-31 07:05:49, last login @ 2013-01-31 07:05:49
  43. 0kite49pyjama registered @ 2013-01-31 07:06:18, last login @ 2013-01-31 07:06:18
  44. 0tune51search registered @ 2013-01-31 07:06:38, last login @ 2013-01-31 07:06:38
  45. 0spoon5lynx registered @ 2013-01-31 07:07:27, last login @ 2013-01-31 07:07:27
  46. 0kale79octave registered @ 2013-01-31 07:08:51, last login @ 2013-01-31 07:08:51
  47. 0botany9jacket registered @ 2013-01-31 07:09:37, last login @ 2013-01-31 07:09:37
  48. 0statetrip61 registered @ 2013-01-31 07:10:08, last login @ 2013-01-31 07:10:08
  49. 0gum36option registered @ 2013-01-31 07:10:21, last login @ 2013-01-31 07:10:21
  50. 0dirtgrey3 registered @ 2013-01-31 07:10:49, last login @ 2013-01-31 07:10:49
  51. 0twine15lip registered @ 2013-01-31 07:10:54, last login @ 2013-01-31 07:39:59
  52. 0door2price registered @ 2013-01-31 07:10:55, last login @ 2013-01-31 07:10:55
  53. 0jar81parade registered @ 2013-01-31 07:11:56, last login @ 2013-01-31 07:11:56
  54. 0push4dress registered @ 2013-01-31 07:13:23, last login @ 2013-01-31 07:13:23
  55. 0tasteactive29 registered @ 2013-01-31 07:13:56, last login @ 2013-01-31 07:13:56
  56. 0pea4grey registered @ 2013-01-31 07:14:08, last login @ 2013-01-31 07:14:08
  57. 0linen01bat registered @ 2013-01-31 07:14:10, last login @ 2013-01-31 07:14:10
  58. 0yewmall5 registered @ 2013-01-31 07:14:39, last login @ 2013-01-31 07:14:39
  59. 0cjl registered @ 2013-01-31 07:15:51, last login @ 2013-01-31 07:15:51
  60. 0card8open registered @ 2013-01-31 07:16:01, last login @ 2013-01-31 07:16:01
  61. 0orange5touch registered @ 2013-01-31 07:16:20, last login @ 2013-01-31 07:16:20
  62. 0kimroach819 registered @ 2013-01-31 07:18:37, last login @ 2013-01-31 07:29:06
  63. 0rose5maple registered @ 2013-01-31 07:18:50, last login @ 2013-01-31 07:18:50
  64. 0node68sudan registered @ 2013-01-31 07:22:32, last login @ 2013-01-31 07:22:32
  65. 0canadaslip3 registered @ 2013-01-31 07:23:18, last login @ 2013-01-31 07:23:18
  66. 0dishdryer0 registered @ 2013-01-31 07:25:06, last login @ 2013-01-31 07:25:06
  67. 0stream68writer registered @ 2013-01-31 07:25:50, last login @ 2013-01-31 07:25:50
  68. 0hallshare9 registered @ 2013-01-31 07:25:55, last login @ 2013-01-31 07:25:55
  69. 0egypt5dance registered @ 2013-01-31 07:26:32, last login @ 2013-01-31 07:26:32
  70. 0llama2mind registered @ 2013-01-31 07:26:38, last login @ 2013-01-31 07:26:38
  71. 0greyatom3 registered @ 2013-01-31 07:28:25, last login @ 2013-01-31 07:28:25
  72. 0BritneyWTF registered @ 2013-01-31 07:29:52, last login @ 2013-01-31 07:29:52
  73. 0shirtdahlia66 registered @ 2013-01-31 07:30:02, last login @ 2013-01-31 07:30:02
  74. 0break9quit registered @ 2013-01-31 07:30:15, last login @ 2013-01-31 07:30:15
  75. 0letter21hawk registered @ 2013-01-31 07:30:37, last login @ 2013-01-31 07:30:37
  76. 0reportschool96 registered @ 2013-01-31 07:30:41, last login @ 2013-01-31 07:30:41
  77. 0stevepeterson093 registered @ 2013-01-31 07:32:15, last login @ 2013-01-31 07:48:17
  78. 0match2body registered @ 2013-01-31 07:32:43, last login @ 2013-01-31 07:32:43
  79. 0phonedenim65 registered @ 2013-01-31 07:35:55, last login @ 2013-01-31 07:35:55
  80. 0coverfold78 registered @ 2013-01-31 07:37:47, last login @ 2013-01-31 07:37:47
  81. 0pizzacare66 registered @ 2013-01-31 07:38:47, last login @ 2013-01-31 07:38:47
  82. 0motion44bed registered @ 2013-01-31 07:38:55, last login @ 2013-01-31 07:38:55
  83. 0salmonrun11 registered @ 2013-01-31 07:39:48, last login @ 2013-01-31 07:39:48
  84. 0judge3red registered @ 2013-01-31 07:39:52, last login @ 2013-01-31 07:39:52
  85. 0maxidress388 registered @ 2013-01-31 07:40:08, last login @ 2013-01-31 07:40:08
  86. 0templesilica4 registered @ 2013-01-31 07:40:45, last login @ 2013-01-31 07:40:45
  87. 0spleen49carbon registered @ 2013-01-31 07:41:04, last login @ 2013-01-31 07:41:04
  88. 0layer7fish registered @ 2013-01-31 07:44:30, last login @ 2013-01-31 07:44:30
  89. 0needle0rest registered @ 2013-01-31 07:44:35, last login @ 2013-01-31 07:44:35
  90. 0maracaunit13 registered @ 2013-01-31 07:47:07, last login @ 2013-01-31 07:47:07
  91. 0bonsai1system registered @ 2013-01-31 07:47:30, last login @ 2013-01-31 07:47:30
  92. 0deerpencil79 registered @ 2013-01-31 07:48:07, last login @ 2013-01-31 07:48:07
  93. 0sign38sarah registered @ 2013-01-31 07:48:20, last login @ 2013-01-31 07:48:20
  94. 0lennone registered @ 2013-01-31 07:48:48, last login @ 2013-01-31 07:48:48
  95. 0yarn9blow registered @ 2013-01-31 07:49:57, last login @ 2013-01-31 07:49:57
  96. 0ramba804 registered @ 2013-01-31 07:50:07, last login @ 2013-01-31 07:50:07
  97. 0coursefuel95 registered @ 2013-01-31 07:50:41, last login @ 2013-01-31 07:50:41
  98. 0guest578 registered @ 2013-01-31 07:52:25, last login @ 2013-01-31 07:52:25
  99. 0shake13wind registered @ 2013-01-31 07:52:31, last login @ 2013-01-31 07:52:31
  100. 0groundspot26 registered @ 2013-01-31 07:53:00, last login @ 2013-01-31 07:53:00
  101. 0note26police registered @ 2013-01-31 07:53:35, last login @ 2013-01-31 07:53:35

More...

[5725] [5724] [5723] [5722] [5721] [5720] [5719] [5718] [5717] [5716] [5715] [5714] [5713] [5712] [5711] [5710] [5709] [5708] [5707] [5706] ...[1]
Back to Top